Time;durP1;ratioP1;P1;durP2;ratioP2;P2;SDS_P1;SDS_P2;PMS_P1;PMS_P2;Temp;Humidity;BMP_temperature;BMP_pressure;BME280_temperature;BME280_humidity;BME280_pressure;Samples;Min_cycle;Max_cycle;Signal;HPM_P1;HPM_P2
2023/04/24 00:01:19;;;;;;;3.80;0.88;;;;;;;;;;20833244;28;20391;-67
2023/04/24 00:11:21;;;;;;;1.85;0.70;;;;;;;;;;20832691;28;20057;-66
2023/04/24 00:21:25;;;;;;;2.20;0.82;;;;;;;;;;20831633;28;20069;-66
2023/04/24 00:31:27;;;;;;;2.55;0.80;;;;;;;;;;20831668;28;20049;-65
2023/04/24 00:41:29;;;;;;;2.47;0.60;;;;;;;;;;20831191;28;20053;-66
2023/04/24 00:51:32;;;;;;;2.22;0.50;;;;;;;;;;20830539;28;20411;-65
2023/04/24 01:01:34;;;;;;;3.67;0.60;;;;;;;;;;20830864;28;20429;-66
2023/04/24 01:11:36;;;;;;;1.63;0.65;;;;;;;;;;20830026;28;20054;-65
2023/04/24 01:21:38;;;;;;;1.08;0.47;;;;;;;;;;20847010;28;20506;-66
2023/04/24 01:31:40;;;;;;;1.27;0.60;;;;;;;;;;20845555;28;20072;-66
2023/04/24 01:41:42;;;;;;;4.05;0.70;;;;;;;;;;20846036;28;20080;-66
2023/04/24 01:51:44;;;;;;;2.47;0.80;;;;;;;;;;20845330;28;20057;-66
2023/04/24 02:01:46;;;;;;;1.75;0.70;;;;;;;;;;20844259;28;20053;-66
2023/04/24 02:11:48;;;;;;;4.20;1.08;;;;;;;;;;20843784;28;20049;-65
2023/04/24 02:21:50;;;;;;;3.17;0.63;;;;;;;;;;20842715;28;20057;-66
2023/04/24 02:31:51;;;;;;;1.98;0.40;;;;;;;;;;20841030;28;20053;-66
2023/04/24 02:41:53;;;;;;;1.55;0.50;;;;;;;;;;20840350;28;20065;-65
2023/04/24 02:51:55;;;;;;;3.45;0.68;;;;;;;;;;20839632;28;20049;-66
2023/04/24 03:01:57;;;;;;;1.95;0.52;;;;;;;;;;20838389;28;20050;-66
2023/04/24 03:11:59;;;;;;;1.88;0.70;;;;;;;;;;20838996;28;20411;-66
2023/04/24 03:22:02;;;;;;;2.67;0.63;;;;;;;;;;20836906;28;20058;-66
2023/04/24 03:32:04;;;;;;;2.30;0.75;;;;;;;;;;20836477;28;20050;-66
2023/04/24 03:42:06;;;;;;;1.25;0.50;;;;;;;;;;20836052;28;20045;-66
2023/04/24 03:52:08;;;;;;;2.33;0.88;;;;;;;;;;20835953;28;20052;-66
2023/04/24 04:02:09;;;;;;;1.98;0.63;;;;;;;;;;20833810;28;20045;-65
2023/04/24 04:12:12;;;;;;;1.63;0.70;;;;;;;;;;20834622;28;20050;-66
2023/04/24 04:22:14;;;;;;;1.83;0.60;;;;;;;;;;20832918;28;20061;-66
2023/04/24 04:32:16;;;;;;;4.53;1.10;;;;;;;;;;20833265;28;20052;-66
2023/04/24 04:42:18;;;;;;;3.97;0.98;;;;;;;;;;20831664;28;20514;-65
2023/04/24 04:52:24;;;;;;;5.75;1.60;;;;;;;;;;20829873;28;20053;-65
2023/04/24 05:02:26;;;;;;;3.40;1.08;;;;;;;;;;20831338;28;20041;-66
2023/04/24 05:12:28;;;;;;;3.10;1.15;;;;;;;;;;20831263;28;20054;-66
2023/04/24 05:22:30;;;;;;;2.63;1.20;;;;;;;;;;20830312;28;20054;-66
2023/04/24 05:32:31;;;;;;;5.45;1.90;;;;;;;;;;20829182;28;20046;-65
2023/04/24 05:42:33;;;;;;;5.00;1.77;;;;;;;;;;20828813;28;20117;-65
2023/04/24 05:52:35;;;;;;;4.13;1.35;;;;;;;;;;20828566;28;20046;-66
2023/04/24 06:02:37;;;;;;;3.42;1.67;;;;;;;;;;20836542;28;20045;-67
2023/04/24 06:12:38;;;;;;;4.70;1.95;;;;;;;;;;20843909;28;20056;-68
2023/04/24 06:22:40;;;;;;;6.38;1.58;;;;;;;;;;20841890;28;20147;-68
2023/04/24 06:32:42;;;;;;;4.30;1.95;;;;;;;;;;20841665;28;20052;-67
2023/04/24 06:42:44;;;;;;;7.18;2.20;;;;;;;;;;20841450;28;20053;-68
2023/04/24 06:52:45;;;;;;;9.15;3.28;;;;;;;;;;20840663;28;20128;-68
2023/04/24 07:02:47;;;;;;;7.53;3.15;;;;;;;;;;20838289;28;20056;-68
2023/04/24 07:12:49;;;;;;;10.40;3.20;;;;;;;;;;20837739;28;20052;-67
2023/04/24 07:22:53;;;;;;;6.43;1.67;;;;;;;;;;20837147;28;20131;-68
2023/04/24 07:32:55;;;;;;;2.05;1.30;;;;;;;;;;20835759;28;20046;-71
2023/04/24 07:42:57;;;;;;;2.42;1.33;;;;;;;;;;20836648;28;20076;-71
2023/04/24 07:52:59;;;;;;;7.95;1.77;;;;;;;;;;20834335;28;20054;-71
2023/04/24 08:03:01;;;;;;;3.75;1.15;;;;;;;;;;20834735;28;20056;-72
2023/04/24 08:13:03;;;;;;;3.80;1.40;;;;;;;;;;20834127;28;20052;-71
2023/04/24 08:23:05;;;;;;;4.63;1.30;;;;;;;;;;20832753;28;20064;-71
2023/04/24 08:33:07;;;;;;;3.45;0.70;;;;;;;;;;20832546;28;20081;-71
2023/04/24 08:43:08;;;;;;;2.13;0.80;;;;;;;;;;20830787;28;20549;-71
2023/04/24 08:53:11;;;;;;;2.03;0.80;;;;;;;;;;20831522;28;20056;-72
2023/04/24 09:03:15;;;;;;;2.20;0.70;;;;;;;;;;20830491;28;20049;-70
2023/04/24 09:13:16;;;;;;;6.70;1.00;;;;;;;;;;20830483;28;20053;-71
2023/04/24 09:23:18;;;;;;;3.55;1.17;;;;;;;;;;20828506;28;20065;-71
2023/04/24 09:33:20;;;;;;;2.55;0.95;;;;;;;;;;20831079;28;20462;-71
2023/04/24 09:43:22;;;;;;;1.92;0.95;;;;;;;;;;20844610;28;20053;-71
2023/04/24 09:53:25;;;;;;;3.22;1.10;;;;;;;;;;20845054;28;20057;-70
2023/04/24 10:03:30;;;;;;;5.95;1.15;;;;;;;;;;20844732;28;20073;-69
2023/04/24 10:13:32;;;;;;;3.90;1.35;;;;;;;;;;20843743;28;20053;-71
2023/04/24 10:23:36;;;;;;;2.60;0.90;;;;;;;;;;20841675;28;20060;-70
2023/04/24 10:33:41;;;;;;;4.75;0.90;;;;;;;;;;20843154;28;20041;-65
2023/04/24 10:43:43;;;;;;;2.58;0.90;;;;;;;;;;20840088;28;20095;-70
2023/04/24 10:53:45;;;;;;;3.30;0.88;;;;;;;;;;20839410;28;20056;-70
2023/04/24 11:03:51;;;;;;;3.38;0.88;;;;;;;;;;20839850;28;20056;-70
2023/04/24 11:13:56;;;;;;;2.55;0.98;;;;;;;;;;20839142;28;20056;-72
2023/04/24 11:23:58;;;;;;;3.63;1.00;;;;;;;;;;20837021;28;20053;-70
2023/04/24 11:34:06;;;;;;;4.78;0.82;;;;;;;;;;20837410;28;20376;-70
2023/04/24 11:44:07;;;;;;;;;;;;;;;;;;20836903;28;20072;-71
2023/04/24 11:54:09;;;;;;;1.52;0.70;;;;;;;;;;20835533;28;20003;-71
2023/04/24 12:04:11;;;;;;;3.22;0.68;;;;;;;;;;20833175;28;20068;-70
2023/04/24 12:14:13;;;;;;;1.30;0.70;;;;;;;;;;20834022;28;20128;-70
2023/04/24 12:24:15;;;;;;;3.70;0.80;;;;;;;;;;20831898;28;20062;-70
2023/04/24 12:34:24;;;;;;;2.58;0.77;;;;;;;;;;20831904;28;20506;-70
2023/04/24 12:44:44;;;;;;;4.82;0.75;;;;;;;;;;20831088;28;20053;-70
2023/04/24 12:54:46;;;;;;;2.28;0.60;;;;;;;;;;20830510;28;20120;-70
2023/04/24 13:04:48;;;;;;;2.60;0.70;;;;;;;;;;20831268;28;20095;-70
2023/04/24 13:14:50;;;;;;;3.40;1.60;;;;;;;;;;20843276;28;20053;-71
2023/04/24 13:24:52;;;;;;;2.17;0.60;;;;;;;;;;20846135;28;20502;-70
2023/04/24 13:34:53;;;;;;;2.28;0.60;;;;;;;;;;20847160;28;20502;-71
2023/04/24 13:44:55;;;;;;;3.92;0.73;;;;;;;;;;20845681;28;20057;-70
2023/04/24 13:54:57;;;;;;;1.98;0.60;;;;;;;;;;20843944;28;20056;-70
2023/04/24 14:04:59;;;;;;;1.88;0.80;;;;;;;;;;20843006;28;20057;-70
2023/04/24 14:15:01;;;;;;;1.83;1.00;;;;;;;;;;20843232;28;20088;-70
2023/04/24 14:25:03;;;;;;;4.22;1.23;;;;;;;;;;20841320;28;20118;-71
2023/04/24 14:35:05;;;;;;;1.58;0.50;;;;;;;;;;20842444;28;20414;-71
2023/04/24 14:45:08;;;;;;;1.45;0.85;;;;;;;;;;20842024;28;20056;-70
2023/04/24 14:55:09;;;;;;;2.88;0.95;;;;;;;;;;20840445;28;20053;-70
2023/04/24 15:05:11;;;;;;;2.05;0.60;;;;;;;;;;20838686;28;20049;-71
2023/04/24 15:15:13;;;;;;;2.15;0.40;;;;;;;;;;20839223;28;20541;-71
2023/04/24 15:25:15;;;;;;;3.08;0.80;;;;;;;;;;20836853;28;20490;-71
2023/04/24 15:35:17;;;;;;;4.93;1.10;;;;;;;;;;20837005;28;20091;-70
2023/04/24 15:45:19;;;;;;;3.40;0.80;;;;;;;;;;20835588;28;20057;-72
2023/04/24 15:55:21;;;;;;;1.48;0.43;;;;;;;;;;20836123;28;20491;-64
2023/04/24 16:05:23;;;;;;;1.70;0.60;;;;;;;;;;20835194;28;20072;-60
2023/04/24 16:15:25;;;;;;;1.45;0.52;;;;;;;;;;20834185;28;20058;-60
2023/04/24 16:25:27;;;;;;;8.48;4.60;;;;;;;;;;20832197;28;20538;-63
2023/04/24 16:35:29;;;;;;;1.50;0.55;;;;;;;;;;20832737;28;20076;-68
2023/04/24 16:45:31;;;;;;;2.75;0.80;;;;;;;;;;20831565;28;20049;-68
2023/04/24 16:55:32;;;;;;;1.90;0.68;;;;;;;;;;20849841;28;20057;-64
2023/04/24 17:05:35;;;;;;;3.25;0.70;;;;;;;;;;20911959;28;20084;-66
2023/04/24 17:15:37;;;;;;;1.52;0.90;;;;;;;;;;20907601;28;20486;-64
2023/04/24 17:25:39;;;;;;;2.60;0.98;;;;;;;;;;20904274;28;20087;-62
2023/04/24 17:35:41;;;;;;;7.32;2.42;;;;;;;;;;20902529;28;20550;-66
2023/04/24 17:45:43;;;;;;;5.95;2.70;;;;;;;;;;20910696;28;20072;-65
2023/04/24 17:55:45;;;;;;;3.72;1.63;;;;;;;;;;20911777;28;20059;-63
2023/04/24 18:05:47;;;;;;;4.57;2.00;;;;;;;;;;20925774;28;20458;-70
2023/04/24 18:15:48;;;;;;;2.67;0.80;;;;;;;;;;20924918;28;20045;-71
2023/04/24 18:25:50;;;;;;;2.72;1.02;;;;;;;;;;20925382;28;20061;-70
2023/04/24 18:35:52;;;;;;;2.85;1.25;;;;;;;;;;20922533;28;20052;-70
2023/04/24 18:45:54;;;;;;;1.98;0.90;;;;;;;;;;20921766;28;20049;-71
2023/04/24 18:55:56;;;;;;;1.95;0.90;;;;;;;;;;20922408;28;20045;-70
2023/04/24 19:05:57;;;;;;;1.60;0.90;;;;;;;;;;20920995;28;20482;-70
2023/04/24 19:15:59;;;;;;;1.48;0.90;;;;;;;;;;20920242;28;20083;-69
2023/04/24 19:26:01;;;;;;;2.38;0.77;;;;;;;;;;20918367;28;20057;-70
2023/04/24 19:36:04;;;;;;;2.28;0.90;;;;;;;;;;20922046;28;20384;-71
2023/04/24 19:46:06;;;;;;;2.15;0.60;;;;;;;;;;20918487;28;20045;-70
2023/04/24 19:56:08;;;;;;;3.10;0.70;;;;;;;;;;20918122;28;20053;-71
2023/04/24 20:06:09;;;;;;;3.30;1.17;;;;;;;;;;20917112;28;20045;-70
2023/04/24 20:16:11;;;;;;;3.75;1.00;;;;;;;;;;20914921;28;20044;-70
2023/04/24 20:26:13;;;;;;;3.40;1.00;;;;;;;;;;20917263;28;20191;-69
2023/04/24 20:36:15;;;;;;;2.58;0.82;;;;;;;;;;20913486;28;20045;-70
2023/04/24 20:46:16;;;;;;;4.57;1.08;;;;;;;;;;20913608;28;20045;-69
2023/04/24 20:56:18;;;;;;;5.25;1.48;;;;;;;;;;20913640;28;20045;-70
2023/04/24 21:06:20;;;;;;;4.07;1.27;;;;;;;;;;20913098;28;20489;-70
2023/04/24 21:16:22;;;;;;;3.38;1.05;;;;;;;;;;20912053;28;20045;-69
2023/04/24 21:26:24;;;;;;;2.28;0.65;;;;;;;;;;20910374;28;20053;-70
2023/04/24 21:36:26;;;;;;;2.70;1.05;;;;;;;;;;20922856;28;20083;-69
2023/04/24 21:46:27;;;;;;;2.38;0.88;;;;;;;;;;20926841;28;20049;-70
2023/04/24 21:56:29;;;;;;;2.58;1.00;;;;;;;;;;20926991;28;20390;-70
2023/04/24 22:06:33;;;;;;;2.95;0.60;;;;;;;;;;20926026;28;20112;-70
2023/04/24 22:16:35;;;;;;;2.83;0.82;;;;;;;;;;20924906;28;20053;-71
2023/04/24 22:26:37;;;;;;;1.90;0.75;;;;;;;;;;20926509;28;20061;-70
2023/04/24 22:36:38;;;;;;;1.92;0.52;;;;;;;;;;20923806;28;20045;-70
2023/04/24 22:46:40;;;;;;;1.00;0.40;;;;;;;;;;20924137;28;20045;-69
2023/04/24 22:56:42;;;;;;;2.22;0.50;;;;;;;;;;20922213;28;20071;-68
2023/04/24 23:06:44;;;;;;;2.17;0.50;;;;;;;;;;20922960;28;20098;-68
2023/04/24 23:16:46;;;;;;;2.10;0.60;;;;;;;;;;20923206;28;20052;-69
2023/04/24 23:26:47;;;;;;;1.77;0.43;;;;;;;;;;20919689;28;20064;-69
2023/04/24 23:36:51;;;;;;;2.33;0.50;;;;;;;;;;20920365;28;20076;-69
2023/04/24 23:46:53;;;;;;;2.22;0.50;;;;;;;;;;20919617;28;20055;-68
2023/04/24 23:56:55;;;;;;;2.03;0.60;;;;;;;;;;20918135;28;20045;-69
